Drummond, MT (59832)

5:52 PM MDT on July 30, 2016 (GMT -0600)
Gold Creek | | Change Station
Active Advisory: Fire Weather Warning

Elev 4997 ft 46.52 °N, 112.99 °W | Updated 9 minutes ago

Partly Cloudy
Partly Cloudy
89.5 °F
Feels Like 86 °F
N
3.0
Wind Variable Wind from WSW
Gusts 8.0 mph

Today
High -- | Low -- °F
--% Chance of Precip.
Yesterday
High -- | Low -- °F
Precip. -- in
Pressure 29.65 in
Visibility 10.0 miles
Clouds Few 11000 ft
Heat Index 86 °F
Dew Point 41 °F
Humidity 18%
Rainfall 0.00 in
Snow Depth Not available.
6:11 AM 9:05 PM
Waning Crescent, 10% visible
METAR KMSO 302253Z 30015G22KT 10SM FEW110 35/06 A2974 RMK AO2 SLP039 T03500061
Pressure 29.65 in
Visibility 10.0 miles
Clouds Few 11000 ft
Heat Index 86 °F
Dew Point 41 °F
Humidity 18%
Rainfall 0.00 in
Snow Depth Not available.
6:11 AM 9:05 PM
Waning Crescent, 10% visible
METAR KMSO 302253Z 30015G22KT 10SM FEW110 35/06 A2974 RMK AO2 SLP039 T03500061

10-Day Weather Forecast

Almanac

Astronomy

Jul. 30, 2016 Rise Set
Actual Time
Civil Twilight
Nautical Twilight
Astronomical Twilight
Moon
Length of Visible Light
Length of Day
Tomorrow will be .
, % of the Moon is Illuminated

Today's Extremes

State Highs State Lows

Community

WunderPhotos

Upload Photos

1,928,680 photos uploaded!

WunderBlog® & News

Nearby

Air Quality

  Air Quality AQ Index Pollutant
Not available.

Snow Depth

Station Depth Elevation

Earthquake Activity

City Distance Mag. Time & Date
Minimum magnitude displayed is 2.5.

Coastal Water Temperatures

Place Temperature

Stations

Nearby Weather Stations

Station Location Temp. Windchill Dew Point Humidity Wind Precip. Elev Updated Type
                   

Watches & Warnings

Fire Weather Warning
Issued: 2:13 PM MDT Jul. 30, 2016 – National Weather Service

... Red flag warning in effect from noon Sunday to 8 PM MDT
Sunday...

The Fire Weather Watch is no longer in effect.


* Affected area: fire zone 110 (deerlodge/west beaverhead) fire
zone 111 (east beaverhead)

* winds: westerly winds 15 to 25 mph with ridge top winds from 25
to 30 mph. Wind gusts of 30 to 40 mph will be common into the
early evening hours.

* Minimum humidities: 8 to 14 percent at lower elevations and near
20 percent at high elevations.

* Timing: winds will increase around noon... peaking by late
afternoon. The most critical combination of winds and low rh
will be between roughly 3pm and 7pm.